sensor_id;sensor_type;location;lat;lon;timestamp;P1;durP1;ratioP1;P2;durP2;ratioP2
71667;SDS011;59504;54.806;9.640;2023-03-04T00:00:52;14.88;;;2.15;;
71667;SDS011;59504;54.806;9.640;2023-03-04T00:03:11;17.13;;;1.88;;
71667;SDS011;59504;54.806;9.640;2023-03-04T00:05:33;22.35;;;2.67;;
71667;SDS011;59504;54.806;9.640;2023-03-04T00:07:52;20.73;;;2.65;;
71667;SDS011;59504;54.806;9.640;2023-03-04T00:10:11;26.13;;;2.50;;
71667;SDS011;59504;54.806;9.640;2023-03-04T00:12:34;27.63;;;2.55;;
71667;SDS011;59504;54.806;9.640;2023-03-04T00:14:53;15.70;;;2.20;;
71667;SDS011;59504;54.806;9.640;2023-03-04T00:17:12;17.58;;;2.30;;
71667;SDS011;59504;54.806;9.640;2023-03-04T00:19:31;14.20;;;2.08;;
71667;SDS011;59504;54.806;9.640;2023-03-04T00:21:50;20.77;;;2.05;;
71667;SDS011;59504;54.806;9.640;2023-03-04T00:24:09;13.85;;;2.22;;
71667;SDS011;59504;54.806;9.640;2023-03-04T00:26:28;17.10;;;2.13;;
71667;SDS011;59504;54.806;9.640;2023-03-04T00:28:47;16.08;;;2.40;;
71667;SDS011;59504;54.806;9.640;2023-03-04T00:31:06;13.27;;;2.10;;
71667;SDS011;59504;54.806;9.640;2023-03-04T00:33:26;21.27;;;2.20;;
71667;SDS011;59504;54.806;9.640;2023-03-04T00:35:45;20.20;;;2.42;;
71667;SDS011;59504;54.806;9.640;2023-03-04T00:38:04;20.05;;;2.38;;
71667;SDS011;59504;54.806;9.640;2023-03-04T00:40:24;13.13;;;1.80;;
71667;SDS011;59504;54.806;9.640;2023-03-04T00:42:43;24.70;;;2.85;;
71667;SDS011;59504;54.806;9.640;2023-03-04T00:45:02;19.63;;;3.03;;
71667;SDS011;59504;54.806;9.640;2023-03-04T00:47:22;16.42;;;2.10;;
71667;SDS011;59504;54.806;9.640;2023-03-04T00:49:42;14.90;;;2.30;;
71667;SDS011;59504;54.806;9.640;2023-03-04T00:52:01;13.70;;;2.53;;
71667;SDS011;59504;54.806;9.640;2023-03-04T00:54:20;15.75;;;1.95;;
71667;SDS011;59504;54.806;9.640;2023-03-04T00:56:39;18.27;;;2.72;;
71667;SDS011;59504;54.806;9.640;2023-03-04T00:58:58;24.35;;;2.05;;
71667;SDS011;59504;54.806;9.640;2023-03-04T01:01:17;15.68;;;2.50;;
71667;SDS011;59504;54.806;9.640;2023-03-04T01:03:37;17.25;;;2.08;;
71667;SDS011;59504;54.806;9.640;2023-03-04T01:05:59;12.18;;;2.20;;
71667;SDS011;59504;54.806;9.640;2023-03-04T01:08:18;11.23;;;1.77;;
71667;SDS011;59504;54.806;9.640;2023-03-04T01:10:37;15.43;;;1.98;;
71667;SDS011;59504;54.806;9.640;2023-03-04T01:12:53;16.92;;;2.22;;
71667;SDS011;59504;54.806;9.640;2023-03-04T01:15:12;19.40;;;2.13;;
71667;SDS011;59504;54.806;9.640;2023-03-04T01:17:32;8.35;;;1.33;;
71667;SDS011;59504;54.806;9.640;2023-03-04T01:19:51;16.00;;;1.88;;
71667;SDS011;59504;54.806;9.640;2023-03-04T01:22:10;17.38;;;2.63;;
71667;SDS011;59504;54.806;9.640;2023-03-04T01:24:31;12.18;;;1.50;;
71667;SDS011;59504;54.806;9.640;2023-03-04T01:26:50;23.00;;;2.13;;
71667;SDS011;59504;54.806;9.640;2023-03-04T01:29:09;20.48;;;2.50;;
71667;SDS011;59504;54.806;9.640;2023-03-04T01:31:28;13.82;;;1.50;;
71667;SDS011;59504;54.806;9.640;2023-03-04T01:33:47;14.82;;;1.95;;
71667;SDS011;59504;54.806;9.640;2023-03-04T01:36:07;9.10;;;1.33;;
71667;SDS011;59504;54.806;9.640;2023-03-04T01:38:26;19.45;;;2.00;;
71667;SDS011;59504;54.806;9.640;2023-03-04T01:40:45;11.90;;;1.50;;
71667;SDS011;59504;54.806;9.640;2023-03-04T01:43:05;13.52;;;2.20;;
71667;SDS011;59504;54.806;9.640;2023-03-04T01:45:25;18.45;;;2.00;;
71667;SDS011;59504;54.806;9.640;2023-03-04T01:47:45;15.18;;;2.22;;
71667;SDS011;59504;54.806;9.640;2023-03-04T01:50:06;11.02;;;1.83;;
71667;SDS011;59504;54.806;9.640;2023-03-04T01:52:33;10.63;;;1.52;;
71667;SDS011;59504;54.806;9.640;2023-03-04T01:54:52;17.65;;;1.20;;
71667;SDS011;59504;54.806;9.640;2023-03-04T01:57:15;14.25;;;2.22;;
71667;SDS011;59504;54.806;9.640;2023-03-04T01:59:39;16.65;;;2.35;;
71667;SDS011;59504;54.806;9.640;2023-03-04T02:01:59;17.90;;;2.90;;
71667;SDS011;59504;54.806;9.640;2023-03-04T02:04:23;20.55;;;2.22;;
71667;SDS011;59504;54.806;9.640;2023-03-04T02:06:44;19.15;;;2.35;;
71667;SDS011;59504;54.806;9.640;2023-03-04T02:09:05;27.02;;;2.83;;
71667;SDS011;59504;54.806;9.640;2023-03-04T02:11:24;19.00;;;3.35;;
71667;SDS011;59504;54.806;9.640;2023-03-04T02:13:44;22.20;;;3.03;;
71667;SDS011;59504;54.806;9.640;2023-03-04T02:16:03;14.98;;;2.20;;
71667;SDS011;59504;54.806;9.640;2023-03-04T02:18:25;22.58;;;2.78;;
71667;SDS011;59504;54.806;9.640;2023-03-04T02:20:47;19.73;;;2.28;;
71667;SDS011;59504;54.806;9.640;2023-03-04T02:28:34;19.55;;;2.65;;
71667;SDS011;59504;54.806;9.640;2023-03-04T02:30:53;28.45;;;3.47;;
71667;SDS011;59504;54.806;9.640;2023-03-04T02:33:13;25.30;;;2.85;;
71667;SDS011;59504;54.806;9.640;2023-03-04T02:35:36;20.67;;;2.93;;
71667;SDS011;59504;54.806;9.640;2023-03-04T02:37:55;29.88;;;3.55;;
71667;SDS011;59504;54.806;9.640;2023-03-04T02:40:15;24.08;;;3.80;;
71667;SDS011;59504;54.806;9.640;2023-03-04T02:42:42;29.10;;;3.20;;
71667;SDS011;59504;54.806;9.640;2023-03-04T02:45:03;19.73;;;3.20;;
71667;SDS011;59504;54.806;9.640;2023-03-04T02:47:22;25.83;;;3.28;;
71667;SDS011;59504;54.806;9.640;2023-03-04T02:49:42;25.98;;;3.00;;
71667;SDS011;59504;54.806;9.640;2023-03-04T02:54:27;21.48;;;3.13;;
71667;SDS011;59504;54.806;9.640;2023-03-04T02:56:48;28.55;;;3.88;;
71667;SDS011;59504;54.806;9.640;2023-03-04T02:59:11;29.33;;;3.55;;
71667;SDS011;59504;54.806;9.640;2023-03-04T03:01:30;30.05;;;3.75;;
71667;SDS011;59504;54.806;9.640;2023-03-04T03:03:49;25.13;;;3.75;;
71667;SDS011;59504;54.806;9.640;2023-03-04T03:06:08;33.05;;;3.70;;
71667;SDS011;59504;54.806;9.640;2023-03-04T03:08:28;25.92;;;3.35;;
71667;SDS011;59504;54.806;9.640;2023-03-04T03:10:47;33.78;;;4.43;;
71667;SDS011;59504;54.806;9.640;2023-03-04T03:13:06;35.30;;;3.97;;
71667;SDS011;59504;54.806;9.640;2023-03-04T03:15:25;29.52;;;3.80;;
71667;SDS011;59504;54.806;9.640;2023-03-04T03:17:44;33.60;;;4.47;;
71667;SDS011;59504;54.806;9.640;2023-03-04T03:20:04;30.38;;;4.88;;
71667;SDS011;59504;54.806;9.640;2023-03-04T03:22:25;32.30;;;4.18;;
71667;SDS011;59504;54.806;9.640;2023-03-04T03:24:47;38.03;;;4.75;;
71667;SDS011;59504;54.806;9.640;2023-03-04T03:27:06;36.13;;;5.07;;
71667;SDS011;59504;54.806;9.640;2023-03-04T03:29:25;38.58;;;4.95;;
71667;SDS011;59504;54.806;9.640;2023-03-04T03:31:45;31.20;;;4.07;;
71667;SDS011;59504;54.806;9.640;2023-03-04T03:34:04;31.85;;;4.30;;
71667;SDS011;59504;54.806;9.640;2023-03-04T03:36:23;37.45;;;3.88;;
71667;SDS011;59504;54.806;9.640;2023-03-04T03:38:42;25.27;;;3.65;;
71667;SDS011;59504;54.806;9.640;2023-03-04T03:41:01;30.63;;;4.43;;
71667;SDS011;59504;54.806;9.640;2023-03-04T03:43:20;43.00;;;4.78;;
71667;SDS011;59504;54.806;9.640;2023-03-04T03:45:39;31.30;;;3.40;;
71667;SDS011;59504;54.806;9.640;2023-03-04T03:47:58;37.45;;;4.03;;
71667;SDS011;59504;54.806;9.640;2023-03-04T03:50:17;46.40;;;4.95;;
71667;SDS011;59504;54.806;9.640;2023-03-04T03:52:37;30.73;;;4.28;;
71667;SDS011;59504;54.806;9.640;2023-03-04T03:54:56;39.88;;;4.75;;
71667;SDS011;59504;54.806;9.640;2023-03-04T03:57:15;29.45;;;4.05;;
71667;SDS011;59504;54.806;9.640;2023-03-04T03:59:34;31.48;;;4.25;;
71667;SDS011;59504;54.806;9.640;2023-03-04T04:01:53;28.45;;;3.67;;
71667;SDS011;59504;54.806;9.640;2023-03-04T04:04:12;36.20;;;4.15;;
71667;SDS011;59504;54.806;9.640;2023-03-04T04:06:31;33.33;;;3.80;;
71667;SDS011;59504;54.806;9.640;2023-03-04T04:08:50;26.08;;;3.78;;
71667;SDS011;59504;54.806;9.640;2023-03-04T04:11:10;25.48;;;3.40;;
71667;SDS011;59504;54.806;9.640;2023-03-04T04:13:30;24.05;;;2.72;;
71667;SDS011;59504;54.806;9.640;2023-03-04T04:15:52;22.75;;;3.15;;
71667;SDS011;59504;54.806;9.640;2023-03-04T04:18:11;26.45;;;3.85;;
71667;SDS011;59504;54.806;9.640;2023-03-04T04:20:30;25.45;;;3.30;;
71667;SDS011;59504;54.806;9.640;2023-03-04T04:22:49;25.75;;;3.50;;
71667;SDS011;59504;54.806;9.640;2023-03-04T04:25:08;22.38;;;3.15;;
71667;SDS011;59504;54.806;9.640;2023-03-04T04:27:28;18.73;;;2.65;;
71667;SDS011;59504;54.806;9.640;2023-03-04T04:29:47;24.17;;;4.28;;
71667;SDS011;59504;54.806;9.640;2023-03-04T04:32:06;25.13;;;3.05;;
71667;SDS011;59504;54.806;9.640;2023-03-04T04:34:26;26.60;;;3.03;;
71667;SDS011;59504;54.806;9.640;2023-03-04T04:36:45;35.35;;;3.95;;
71667;SDS011;59504;54.806;9.640;2023-03-04T04:39:04;20.38;;;3.17;;
71667;SDS011;59504;54.806;9.640;2023-03-04T04:41:24;22.05;;;2.85;;
71667;SDS011;59504;54.806;9.640;2023-03-04T04:43:46;27.70;;;3.40;;
71667;SDS011;59504;54.806;9.640;2023-03-04T04:46:05;28.60;;;3.42;;
71667;SDS011;59504;54.806;9.640;2023-03-04T04:48:24;27.88;;;4.55;;
71667;SDS011;59504;54.806;9.640;2023-03-04T04:50:43;33.28;;;3.10;;
71667;SDS011;59504;54.806;9.640;2023-03-04T04:53:02;24.55;;;3.80;;
71667;SDS011;59504;54.806;9.640;2023-03-04T04:55:21;16.90;;;2.92;;
71667;SDS011;59504;54.806;9.640;2023-03-04T04:57:40;31.52;;;4.28;;
71667;SDS011;59504;54.806;9.640;2023-03-04T05:00:00;31.92;;;3.63;;
71667;SDS011;59504;54.806;9.640;2023-03-04T05:02:19;25.00;;;3.47;;
71667;SDS011;59504;54.806;9.640;2023-03-04T05:04:39;39.55;;;4.22;;
71667;SDS011;59504;54.806;9.640;2023-03-04T05:06:58;29.08;;;4.30;;
71667;SDS011;59504;54.806;9.640;2023-03-04T05:09:14;23.30;;;3.15;;
71667;SDS011;59504;54.806;9.640;2023-03-04T05:11:33;30.85;;;3.58;;
71667;SDS011;59504;54.806;9.640;2023-03-04T05:13:52;29.02;;;4.20;;
71667;SDS011;59504;54.806;9.640;2023-03-04T05:16:11;38.13;;;4.18;;
71667;SDS011;59504;54.806;9.640;2023-03-04T05:18:31;32.28;;;4.25;;
71667;SDS011;59504;54.806;9.640;2023-03-04T05:20:51;29.30;;;3.70;;
71667;SDS011;59504;54.806;9.640;2023-03-04T05:23:12;37.70;;;3.47;;
71667;SDS011;59504;54.806;9.640;2023-03-04T05:25:31;30.67;;;4.32;;
71667;SDS011;59504;54.806;9.640;2023-03-04T05:27:51;26.73;;;3.83;;
71667;SDS011;59504;54.806;9.640;2023-03-04T05:30:10;37.10;;;4.35;;
71667;SDS011;59504;54.806;9.640;2023-03-04T05:32:30;33.72;;;3.90;;
71667;SDS011;59504;54.806;9.640;2023-03-04T05:34:49;30.25;;;4.07;;
71667;SDS011;59504;54.806;9.640;2023-03-04T05:37:08;22.10;;;3.67;;
71667;SDS011;59504;54.806;9.640;2023-03-04T05:39:27;35.90;;;4.78;;
71667;SDS011;59504;54.806;9.640;2023-03-04T05:41:46;30.92;;;4.45;;
71667;SDS011;59504;54.806;9.640;2023-03-04T05:44:05;32.13;;;4.18;;
71667;SDS011;59504;54.806;9.640;2023-03-04T05:46:24;35.90;;;4.28;;
71667;SDS011;59504;54.806;9.640;2023-03-04T05:48:44;28.08;;;4.40;;
71667;SDS011;59504;54.806;9.640;2023-03-04T05:51:03;32.55;;;4.50;;
71667;SDS011;59504;54.806;9.640;2023-03-04T05:53:23;34.35;;;4.88;;
71667;SDS011;59504;54.806;9.640;2023-03-04T05:55:44;25.70;;;4.07;;
71667;SDS011;59504;54.806;9.640;2023-03-04T05:58:05;29.85;;;4.50;;
71667;SDS011;59504;54.806;9.640;2023-03-04T06:00:24;35.92;;;4.15;;
71667;SDS011;59504;54.806;9.640;2023-03-04T06:02:44;40.00;;;4.47;;
71667;SDS011;59504;54.806;9.640;2023-03-04T06:05:03;31.83;;;4.15;;
71667;SDS011;59504;54.806;9.640;2023-03-04T06:07:22;33.60;;;4.40;;
71667;SDS011;59504;54.806;9.640;2023-03-04T06:09:41;22.10;;;3.92;;
71667;SDS011;59504;54.806;9.640;2023-03-04T06:12:02;33.20;;;4.22;;
71667;SDS011;59504;54.806;9.640;2023-03-04T06:14:22;30.55;;;4.15;;
71667;SDS011;59504;54.806;9.640;2023-03-04T06:16:41;39.92;;;4.78;;
71667;SDS011;59504;54.806;9.640;2023-03-04T06:19:00;25.85;;;4.20;;
71667;SDS011;59504;54.806;9.640;2023-03-04T06:21:19;35.20;;;4.35;;
71667;SDS011;59504;54.806;9.640;2023-03-04T06:23:38;36.65;;;5.32;;
71667;SDS011;59504;54.806;9.640;2023-03-04T06:25:58;32.58;;;3.95;;
71667;SDS011;59504;54.806;9.640;2023-03-04T06:28:19;32.35;;;4.05;;
71667;SDS011;59504;54.806;9.640;2023-03-04T06:30:39;32.33;;;4.93;;
71667;SDS011;59504;54.806;9.640;2023-03-04T06:32:58;43.60;;;5.25;;
71667;SDS011;59504;54.806;9.640;2023-03-04T06:35:17;34.88;;;4.35;;
71667;SDS011;59504;54.806;9.640;2023-03-04T06:37:37;34.25;;;4.05;;
71667;SDS011;59504;54.806;9.640;2023-03-04T06:39:56;32.85;;;4.38;;
71667;SDS011;59504;54.806;9.640;2023-03-04T06:42:15;27.83;;;3.85;;
71667;SDS011;59504;54.806;9.640;2023-03-04T06:44:34;36.05;;;5.30;;
71667;SDS011;59504;54.806;9.640;2023-03-04T06:46:53;40.03;;;4.70;;
71667;SDS011;59504;54.806;9.640;2023-03-04T06:49:12;30.98;;;4.25;;
71667;SDS011;59504;54.806;9.640;2023-03-04T06:51:31;41.70;;;4.60;;
71667;SDS011;59504;54.806;9.640;2023-03-04T06:53:51;31.83;;;4.30;;
71667;SDS011;59504;54.806;9.640;2023-03-04T06:56:11;27.52;;;4.55;;
71667;SDS011;59504;54.806;9.640;2023-03-04T06:58:31;40.28;;;5.28;;
71667;SDS011;59504;54.806;9.640;2023-03-04T07:00:51;36.28;;;5.38;;
71667;SDS011;59504;54.806;9.640;2023-03-04T07:03:10;22.80;;;3.60;;
71667;SDS011;59504;54.806;9.640;2023-03-04T07:05:30;28.92;;;5.15;;
71667;SDS011;59504;54.806;9.640;2023-03-04T07:07:49;35.25;;;5.32;;
71667;SDS011;59504;54.806;9.640;2023-03-04T07:10:09;32.40;;;4.28;;
71667;SDS011;59504;54.806;9.640;2023-03-04T07:12:28;25.98;;;3.97;;
71667;SDS011;59504;54.806;9.640;2023-03-04T07:14:48;32.65;;;3.53;;
71667;SDS011;59504;54.806;9.640;2023-03-04T07:17:07;31.35;;;3.75;;
71667;SDS011;59504;54.806;9.640;2023-03-04T07:19:26;34.33;;;3.70;;
71667;SDS011;59504;54.806;9.640;2023-03-04T07:21:45;29.67;;;4.18;;
71667;SDS011;59504;54.806;9.640;2023-03-04T07:24:11;29.52;;;3.83;;
71667;SDS011;59504;54.806;9.640;2023-03-04T07:30:10;32.75;;;4.13;;
71667;SDS011;59504;54.806;9.640;2023-03-04T07:32:39;30.27;;;3.35;;
71667;SDS011;59504;54.806;9.640;2023-03-04T07:34:59;37.35;;;4.18;;
71667;SDS011;59504;54.806;9.640;2023-03-04T07:37:18;32.35;;;3.92;;
71667;SDS011;59504;54.806;9.640;2023-03-04T07:39:37;31.98;;;3.92;;
71667;SDS011;59504;54.806;9.640;2023-03-04T07:41:57;23.02;;;3.75;;
71667;SDS011;59504;54.806;9.640;2023-03-04T07:44:16;26.38;;;3.97;;
71667;SDS011;59504;54.806;9.640;2023-03-04T07:46:35;36.60;;;5.00;;
71667;SDS011;59504;54.806;9.640;2023-03-04T07:48:55;32.33;;;3.38;;
71667;SDS011;59504;54.806;9.640;2023-03-04T07:51:15;34.55;;;3.63;;
71667;SDS011;59504;54.806;9.640;2023-03-04T07:53:37;29.35;;;4.00;;
71667;SDS011;59504;54.806;9.640;2023-03-04T07:55:57;32.10;;;4.32;;
71667;SDS011;59504;54.806;9.640;2023-03-04T07:58:17;28.85;;;4.60;;
71667;SDS011;59504;54.806;9.640;2023-03-04T08:00:37;28.30;;;3.92;;
71667;SDS011;59504;54.806;9.640;2023-03-04T08:02:59;36.42;;;4.75;;
71667;SDS011;59504;54.806;9.640;2023-03-04T08:05:23;25.15;;;3.55;;
71667;SDS011;59504;54.806;9.640;2023-03-04T08:07:43;28.42;;;3.83;;
71667;SDS011;59504;54.806;9.640;2023-03-04T08:10:02;30.77;;;4.07;;
71667;SDS011;59504;54.806;9.640;2023-03-04T08:12:22;27.73;;;4.63;;
71667;SDS011;59504;54.806;9.640;2023-03-04T08:14:44;32.10;;;3.95;;
71667;SDS011;59504;54.806;9.640;2023-03-04T08:17:03;26.85;;;3.42;;
71667;SDS011;59504;54.806;9.640;2023-03-04T08:19:22;37.22;;;4.15;;
71667;SDS011;59504;54.806;9.640;2023-03-04T08:21:41;34.95;;;4.60;;
71667;SDS011;59504;54.806;9.640;2023-03-04T08:24:00;30.52;;;4.05;;
71667;SDS011;59504;54.806;9.640;2023-03-04T08:26:27;14.93;;;2.47;;
71667;SDS011;59504;54.806;9.640;2023-03-04T08:28:51;27.85;;;3.42;;
71667;SDS011;59504;54.806;9.640;2023-03-04T08:31:12;27.25;;;3.67;;
71667;SDS011;59504;54.806;9.640;2023-03-04T08:33:33;36.17;;;4.20;;
71667;SDS011;59504;54.806;9.640;2023-03-04T08:35:52;31.90;;;4.10;;
71667;SDS011;59504;54.806;9.640;2023-03-04T08:38:11;27.02;;;3.65;;
71667;SDS011;59504;54.806;9.640;2023-03-04T08:40:31;24.00;;;3.70;;
71667;SDS011;59504;54.806;9.640;2023-03-04T08:42:50;27.77;;;3.97;;
71667;SDS011;59504;54.806;9.640;2023-03-04T08:45:10;23.73;;;3.40;;
71667;SDS011;59504;54.806;9.640;2023-03-04T08:47:29;24.90;;;3.40;;
71667;SDS011;59504;54.806;9.640;2023-03-04T08:49:48;28.02;;;3.28;;
71667;SDS011;59504;54.806;9.640;2023-03-04T08:52:07;17.95;;;3.58;;
71667;SDS011;59504;54.806;9.640;2023-03-04T08:54:26;25.25;;;3.45;;
71667;SDS011;59504;54.806;9.640;2023-03-04T08:56:45;31.73;;;3.60;;
71667;SDS011;59504;54.806;9.640;2023-03-04T08:59:05;25.58;;;3.67;;
71667;SDS011;59504;54.806;9.640;2023-03-04T09:01:24;22.73;;;3.42;;
71667;SDS011;59504;54.806;9.640;2023-03-04T09:03:44;25.50;;;3.45;;
71667;SDS011;59504;54.806;9.640;2023-03-04T09:06:03;32.90;;;3.78;;
71667;SDS011;59504;54.806;9.640;2023-03-04T09:08:24;24.02;;;3.40;;
71667;SDS011;59504;54.806;9.640;2023-03-04T09:10:44;19.90;;;3.85;;
71667;SDS011;59504;54.806;9.640;2023-03-04T09:13:04;29.02;;;3.33;;
71667;SDS011;59504;54.806;9.640;2023-03-04T09:15:23;26.58;;;3.72;;
71667;SDS011;59504;54.806;9.640;2023-03-04T09:17:42;24.02;;;3.13;;
71667;SDS011;59504;54.806;9.640;2023-03-04T09:20:02;30.17;;;4.05;;
71667;SDS011;59504;54.806;9.640;2023-03-04T09:22:22;25.30;;;4.03;;
71667;SDS011;59504;54.806;9.640;2023-03-04T09:24:41;23.52;;;3.92;;
71667;SDS011;59504;54.806;9.640;2023-03-04T09:27:00;27.38;;;3.15;;
71667;SDS011;59504;54.806;9.640;2023-03-04T09:29:20;26.38;;;3.92;;
71667;SDS011;59504;54.806;9.640;2023-03-04T09:31:40;29.42;;;4.15;;
71667;SDS011;59504;54.806;9.640;2023-03-04T09:33:59;22.10;;;2.80;;
71667;SDS011;59504;54.806;9.640;2023-03-04T09:36:18;30.67;;;3.65;;
71667;SDS011;59504;54.806;9.640;2023-03-04T09:38:38;25.65;;;3.13;;
71667;SDS011;59504;54.806;9.640;2023-03-04T09:40:59;28.98;;;3.80;;
71667;SDS011;59504;54.806;9.640;2023-03-04T09:43:25;30.73;;;3.47;;
71667;SDS011;59504;54.806;9.640;2023-03-04T09:45:48;21.00;;;3.30;;
71667;SDS011;59504;54.806;9.640;2023-03-04T09:48:15;17.15;;;2.65;;
71667;SDS011;59504;54.806;9.640;2023-03-04T09:50:39;24.00;;;3.10;;
71667;SDS011;59504;54.806;9.640;2023-03-04T09:55:43;25.35;;;3.83;;
71667;SDS011;59504;54.806;9.640;2023-03-04T09:58:14;17.73;;;2.72;;
71667;SDS011;59504;54.806;9.640;2023-03-04T10:00:54;20.35;;;3.58;;
71667;SDS011;59504;54.806;9.640;2023-03-04T10:03:19;27.13;;;3.25;;
71667;SDS011;59504;54.806;9.640;2023-03-04T10:06:05;22.52;;;3.05;;
71667;SDS011;59504;54.806;9.640;2023-03-04T10:11:44;25.70;;;2.63;;
71667;SDS011;59504;54.806;9.640;2023-03-04T10:16:51;20.15;;;3.53;;
71667;SDS011;59504;54.806;9.640;2023-03-04T10:19:23;20.60;;;2.83;;
71667;SDS011;59504;54.806;9.640;2023-03-04T10:21:50;16.85;;;2.97;;
71667;SDS011;59504;54.806;9.640;2023-03-04T10:24:10;18.08;;;2.72;;
71667;SDS011;59504;54.806;9.640;2023-03-04T10:26:32;20.42;;;2.50;;
71667;SDS011;59504;54.806;9.640;2023-03-04T10:28:52;17.35;;;2.60;;
71667;SDS011;59504;54.806;9.640;2023-03-04T10:31:16;21.05;;;2.25;;
71667;SDS011;59504;54.806;9.640;2023-03-04T10:33:45;17.25;;;2.15;;
71667;SDS011;59504;54.806;9.640;2023-03-04T10:38:48;17.63;;;2.30;;
71667;SDS011;59504;54.806;9.640;2023-03-04T10:41:12;15.67;;;2.60;;
71667;SDS011;59504;54.806;9.640;2023-03-04T10:43:38;19.75;;;2.83;;
71667;SDS011;59504;54.806;9.640;2023-03-04T10:45:58;18.83;;;3.15;;
71667;SDS011;59504;54.806;9.640;2023-03-04T10:48:26;19.77;;;2.72;;
71667;SDS011;59504;54.806;9.640;2023-03-04T10:50:46;18.50;;;2.58;;
71667;SDS011;59504;54.806;9.640;2023-03-04T10:53:09;16.73;;;2.40;;
71667;SDS011;59504;54.806;9.640;2023-03-04T10:55:43;13.90;;;2.60;;
71667;SDS011;59504;54.806;9.640;2023-03-04T10:58:03;20.27;;;3.50;;
71667;SDS011;59504;54.806;9.640;2023-03-04T11:00:27;13.55;;;2.03;;
71667;SDS011;59504;54.806;9.640;2023-03-04T11:02:47;21.98;;;2.72;;
71667;SDS011;59504;54.806;9.640;2023-03-04T11:07:39;24.15;;;2.92;;
71667;SDS011;59504;54.806;9.640;2023-03-04T11:10:06;13.75;;;2.42;;
71667;SDS011;59504;54.806;9.640;2023-03-04T11:12:16;18.83;;;2.88;;
71667;SDS011;59504;54.806;9.640;2023-03-04T11:14:26;18.42;;;2.50;;
71667;SDS011;59504;54.806;9.640;2023-03-04T11:16:31;23.33;;;3.08;;
71667;SDS011;59504;54.806;9.640;2023-03-04T11:18:47;18.50;;;2.67;;
71667;SDS011;59504;54.806;9.640;2023-03-04T11:20:51;22.95;;;3.15;;
71667;SDS011;59504;54.806;9.640;2023-03-04T11:22:54;18.23;;;2.35;;
71667;SDS011;59504;54.806;9.640;2023-03-04T11:25:04;17.23;;;3.05;;
71667;SDS011;59504;54.806;9.640;2023-03-04T11:27:15;16.38;;;2.30;;
71667;SDS011;59504;54.806;9.640;2023-03-04T11:31:35;12.85;;;2.42;;
71667;SDS011;59504;54.806;9.640;2023-03-04T11:33:43;18.52;;;2.80;;
71667;SDS011;59504;54.806;9.640;2023-03-04T11:35:58;20.45;;;2.47;;
71667;SDS011;59504;54.806;9.640;2023-03-04T11:38:21;17.80;;;2.67;;
71667;SDS011;59504;54.806;9.640;2023-03-04T11:40:53;14.55;;;2.17;;
71667;SDS011;59504;54.806;9.640;2023-03-04T11:43:06;15.05;;;2.80;;
71667;SDS011;59504;54.806;9.640;2023-03-04T11:45:14;16.42;;;2.35;;
71667;SDS011;59504;54.806;9.640;2023-03-04T11:50:07;18.38;;;2.50;;
71667;SDS011;59504;54.806;9.640;2023-03-04T11:56:42;13.57;;;2.13;;
71667;SDS011;59504;54.806;9.640;2023-03-04T12:08:52;17.48;;;2.25;;
71667;SDS011;59504;54.806;9.640;2023-03-04T12:11:08;13.13;;;2.10;;
71667;SDS011;59504;54.806;9.640;2023-03-04T12:13:45;14.65;;;2.45;;
71667;SDS011;59504;54.806;9.640;2023-03-04T12:16:03;15.73;;;2.47;;
71667;SDS011;59504;54.806;9.640;2023-03-04T12:23:20;27.98;;;2.92;;
71667;SDS011;59504;54.806;9.640;2023-03-04T12:25:41;12.82;;;2.38;;
71667;SDS011;59504;54.806;9.640;2023-03-04T12:28:21;13.10;;;2.08;;
71667;SDS011;59504;54.806;9.640;2023-03-04T12:30:29;14.60;;;2.53;;
71667;SDS011;59504;54.806;9.640;2023-03-04T12:35:16;16.55;;;2.95;;
71667;SDS011;59504;54.806;9.640;2023-03-04T12:37:43;10.90;;;2.10;;
71667;SDS011;59504;54.806;9.640;2023-03-04T12:40:11;19.55;;;2.35;;
71667;SDS011;59504;54.806;9.640;2023-03-04T12:42:36;13.85;;;1.85;;
71667;SDS011;59504;54.806;9.640;2023-03-04T12:49:47;13.15;;;2.83;;
71667;SDS011;59504;54.806;9.640;2023-03-04T12:52:16;18.73;;;2.30;;
71667;SDS011;59504;54.806;9.640;2023-03-04T12:54:30;14.68;;;1.90;;
71667;SDS011;59504;54.806;9.640;2023-03-04T12:58:42;13.88;;;2.00;;
71667;SDS011;59504;54.806;9.640;2023-03-04T13:01:08;14.80;;;2.35;;
71667;SDS011;59504;54.806;9.640;2023-03-04T13:03:21;17.67;;;2.25;;
71667;SDS011;59504;54.806;9.640;2023-03-04T13:09:53;11.15;;;1.98;;
71667;SDS011;59504;54.806;9.640;2023-03-04T13:12:02;14.15;;;2.17;;
71667;SDS011;59504;54.806;9.640;2023-03-04T13:24:46;14.40;;;1.75;;
71667;SDS011;59504;54.806;9.640;2023-03-04T13:26:50;12.75;;;1.80;;
71667;SDS011;59504;54.806;9.640;2023-03-04T13:28:51;9.77;;;1.52;;
71667;SDS011;59504;54.806;9.640;2023-03-04T13:37:55;13.70;;;2.28;;
71667;SDS011;59504;54.806;9.640;2023-03-04T13:43:16;10.98;;;2.08;;
71667;SDS011;59504;54.806;9.640;2023-03-04T13:45:45;13.45;;;1.75;;
71667;SDS011;59504;54.806;9.640;2023-03-04T13:48:25;15.65;;;1.65;;
71667;SDS011;59504;54.806;9.640;2023-03-04T13:50:50;10.98;;;1.92;;
71667;SDS011;59504;54.806;9.640;2023-03-04T13:53:17;12.57;;;2.05;;
71667;SDS011;59504;54.806;9.640;2023-03-04T13:56:01;10.32;;;2.17;;
71667;SDS011;59504;54.806;9.640;2023-03-04T13:58:22;13.43;;;2.00;;
71667;SDS011;59504;54.806;9.640;2023-03-04T14:00:48;13.15;;;2.33;;
71667;SDS011;59504;54.806;9.640;2023-03-04T14:03:12;15.50;;;3.40;;
71667;SDS011;59504;54.806;9.640;2023-03-04T14:05:23;17.90;;;2.45;;
71667;SDS011;59504;54.806;9.640;2023-03-04T14:07:44;7.50;;;1.75;;
71667;SDS011;59504;54.806;9.640;2023-03-04T14:12:45;10.10;;;1.92;;
71667;SDS011;59504;54.806;9.640;2023-03-04T14:17:34;10.00;;;1.77;;
71667;SDS011;59504;54.806;9.640;2023-03-04T14:19:37;13.35;;;2.20;;
71667;SDS011;59504;54.806;9.640;2023-03-04T14:22:16;16.92;;;2.13;;
71667;SDS011;59504;54.806;9.640;2023-03-04T14:24:53;12.10;;;1.67;;
71667;SDS011;59504;54.806;9.640;2023-03-04T14:27:15;11.18;;;1.40;;
71667;SDS011;59504;54.806;9.640;2023-03-04T14:29:36;9.35;;;2.03;;
71667;SDS011;59504;54.806;9.640;2023-03-04T14:31:57;14.15;;;1.70;;
71667;SDS011;59504;54.806;9.640;2023-03-04T14:34:27;11.43;;;1.85;;
71667;SDS011;59504;54.806;9.640;2023-03-04T14:36:57;13.48;;;2.03;;
71667;SDS011;59504;54.806;9.640;2023-03-04T14:39:18;7.93;;;1.25;;
71667;SDS011;59504;54.806;9.640;2023-03-04T14:41:43;6.63;;;1.30;;
71667;SDS011;59504;54.806;9.640;2023-03-04T14:46:58;13.90;;;1.52;;
71667;SDS011;59504;54.806;9.640;2023-03-04T14:49:40;7.47;;;1.55;;
71667;SDS011;59504;54.806;9.640;2023-03-04T14:52:01;12.32;;;1.95;;
71667;SDS011;59504;54.806;9.640;2023-03-04T14:54:30;21.13;;;1.73;;
71667;SDS011;59504;54.806;9.640;2023-03-04T14:57:00;12.02;;;1.65;;
71667;SDS011;59504;54.806;9.640;2023-03-04T14:59:42;14.25;;;2.33;;
71667;SDS011;59504;54.806;9.640;2023-03-04T15:04:54;13.07;;;1.58;;
71667;SDS011;59504;54.806;9.640;2023-03-04T15:07:20;8.65;;;1.33;;
71667;SDS011;59504;54.806;9.640;2023-03-04T15:09:52;13.00;;;1.75;;
71667;SDS011;59504;54.806;9.640;2023-03-04T15:12:20;10.70;;;1.60;;
71667;SDS011;59504;54.806;9.640;2023-03-04T15:14:45;8.43;;;1.25;;
71667;SDS011;59504;54.806;9.640;2023-03-04T15:17:22;8.95;;;1.50;;
71667;SDS011;59504;54.806;9.640;2023-03-04T15:20:11;8.68;;;1.30;;
71667;SDS011;59504;54.806;9.640;2023-03-04T15:25:00;13.50;;;1.85;;
71667;SDS011;59504;54.806;9.640;2023-03-04T15:27:21;8.70;;;1.92;;
71667;SDS011;59504;54.806;9.640;2023-03-04T15:29:43;11.27;;;1.55;;
71667;SDS011;59504;54.806;9.640;2023-03-04T15:32:04;10.07;;;1.85;;